sensor_id;sensor_type;location;lat;lon;timestamp;temperature;humidity
76120;DHT22;64852;48.092;-1.640;2022-12-07T00:01:11;7.80;99.90
76120;DHT22;64852;48.092;-1.640;2022-12-07T00:03:38;7.80;99.90
76120;DHT22;64852;48.092;-1.640;2022-12-07T00:06:05;7.80;99.90
76120;DHT22;64852;48.092;-1.640;2022-12-07T00:08:33;7.80;99.90
76120;DHT22;64852;48.092;-1.640;2022-12-07T00:11:13;7.80;99.90
76120;DHT22;64852;48.092;-1.640;2022-12-07T00:13:40;7.80;99.90
76120;DHT22;64852;48.092;-1.640;2022-12-07T00:16:09;7.80;99.90
76120;DHT22;64852;48.092;-1.640;2022-12-07T00:18:35;7.70;99.90
76120;DHT22;64852;48.092;-1.640;2022-12-07T00:21:07;7.50;99.90
76120;DHT22;64852;48.092;-1.640;2022-12-07T00:23:34;7.50;99.90
76120;DHT22;64852;48.092;-1.640;2022-12-07T00:26:08;7.50;99.90
76120;DHT22;64852;48.092;-1.640;2022-12-07T00:28:34;7.50;99.90
76120;DHT22;64852;48.092;-1.640;2022-12-07T00:31:08;7.50;99.90
76120;DHT22;64852;48.092;-1.640;2022-12-07T00:33:35;7.40;99.90
76120;DHT22;64852;48.092;-1.640;2022-12-07T00:36:03;7.40;99.90
76120;DHT22;64852;48.092;-1.640;2022-12-07T00:38:31;7.40;99.90
76120;DHT22;64852;48.092;-1.640;2022-12-07T00:41:03;7.30;99.90
76120;DHT22;64852;48.092;-1.640;2022-12-07T00:43:30;7.30;99.90
76120;DHT22;64852;48.092;-1.640;2022-12-07T00:45:56;7.30;99.90
76120;DHT22;64852;48.092;-1.640;2022-12-07T00:48:22;7.30;99.90
76120;DHT22;64852;48.092;-1.640;2022-12-07T00:50:48;7.20;99.90
76120;DHT22;64852;48.092;-1.640;2022-12-07T00:53:15;7.20;99.90
76120;DHT22;64852;48.092;-1.640;2022-12-07T00:55:42;7.20;99.90
76120;DHT22;64852;48.092;-1.640;2022-12-07T00:58:08;7.20;99.90
76120;DHT22;64852;48.092;-1.640;2022-12-07T01:00:36;7.20;99.90
76120;DHT22;64852;48.092;-1.640;2022-12-07T01:03:03;7.20;99.90
76120;DHT22;64852;48.092;-1.640;2022-12-07T01:05:28;7.10;99.90
76120;DHT22;64852;48.092;-1.640;2022-12-07T01:07:54;7.10;99.90
76120;DHT22;64852;48.092;-1.640;2022-12-07T01:10:20;7.10;99.90
76120;DHT22;64852;48.092;-1.640;2022-12-07T01:12:45;7.10;99.90
76120;DHT22;64852;48.092;-1.640;2022-12-07T01:15:11;7.00;99.90
76120;DHT22;64852;48.092;-1.640;2022-12-07T01:17:37;7.10;99.90
76120;DHT22;64852;48.092;-1.640;2022-12-07T01:20:03;7.00;99.90
76120;DHT22;64852;48.092;-1.640;2022-12-07T01:22:29;7.00;99.90
76120;DHT22;64852;48.092;-1.640;2022-12-07T01:24:55;6.90;99.90
76120;DHT22;64852;48.092;-1.640;2022-12-07T01:27:20;6.90;99.90
76120;DHT22;64852;48.092;-1.640;2022-12-07T01:29:46;6.90;99.90
76120;DHT22;64852;48.092;-1.640;2022-12-07T01:32:11;6.80;99.90
76120;DHT22;64852;48.092;-1.640;2022-12-07T01:34:37;6.80;99.90
76120;DHT22;64852;48.092;-1.640;2022-12-07T01:37:03;6.80;99.90
76120;DHT22;64852;48.092;-1.640;2022-12-07T01:39:28;6.70;99.90
76120;DHT22;64852;48.092;-1.640;2022-12-07T01:41:54;6.60;99.90
76120;DHT22;64852;48.092;-1.640;2022-12-07T01:44:24;6.60;99.90
76120;DHT22;64852;48.092;-1.640;2022-12-07T01:46:51;6.60;99.90
76120;DHT22;64852;48.092;-1.640;2022-12-07T01:49:31;6.60;99.90
76120;DHT22;64852;48.092;-1.640;2022-12-07T01:52:31;6.50;99.90
76120;DHT22;64852;48.092;-1.640;2022-12-07T01:55:02;6.60;99.90
76120;DHT22;64852;48.092;-1.640;2022-12-07T01:57:30;6.40;99.90
76120;DHT22;64852;48.092;-1.640;2022-12-07T01:59:57;6.40;99.90
76120;DHT22;64852;48.092;-1.640;2022-12-07T02:02:27;6.40;99.90
76120;DHT22;64852;48.092;-1.640;2022-12-07T02:04:56;6.50;99.90
76120;DHT22;64852;48.092;-1.640;2022-12-07T02:07:23;6.40;99.90
76120;DHT22;64852;48.092;-1.640;2022-12-07T02:09:49;6.40;99.90
76120;DHT22;64852;48.092;-1.640;2022-12-07T02:12:15;6.40;99.90
76120;DHT22;64852;48.092;-1.640;2022-12-07T02:14:40;6.30;99.90
76120;DHT22;64852;48.092;-1.640;2022-12-07T02:17:28;6.30;99.90
76120;DHT22;64852;48.092;-1.640;2022-12-07T02:25:58;6.20;99.90
76120;DHT22;64852;48.092;-1.640;2022-12-07T02:28:33;6.10;99.90
76120;DHT22;64852;48.092;-1.640;2022-12-07T02:31:06;6.10;99.90
76120;DHT22;64852;48.092;-1.640;2022-12-07T02:33:46;6.00;99.90
76120;DHT22;64852;48.092;-1.640;2022-12-07T02:36:21;6.10;99.90
76120;DHT22;64852;48.092;-1.640;2022-12-07T02:38:58;6.10;99.90
76120;DHT22;64852;48.092;-1.640;2022-12-07T02:41:36;6.10;99.90
76120;DHT22;64852;48.092;-1.640;2022-12-07T02:44:08;6.00;99.90
76120;DHT22;64852;48.092;-1.640;2022-12-07T02:46:41;6.10;99.90
76120;DHT22;64852;48.092;-1.640;2022-12-07T02:49:08;6.00;99.90
76120;DHT22;64852;48.092;-1.640;2022-12-07T02:51:38;5.80;99.90
76120;DHT22;64852;48.092;-1.640;2022-12-07T02:54:18;5.80;99.90
76120;DHT22;64852;48.092;-1.640;2022-12-07T03:13:28;5.80;99.90
76120;DHT22;64852;48.092;-1.640;2022-12-07T03:16:06;5.70;99.90
76120;DHT22;64852;48.092;-1.640;2022-12-07T03:18:38;5.80;99.90
76120;DHT22;64852;48.092;-1.640;2022-12-07T03:21:22;5.60;99.90
76120;DHT22;64852;48.092;-1.640;2022-12-07T03:23:52;5.50;99.90
76120;DHT22;64852;48.092;-1.640;2022-12-07T03:26:21;5.60;99.90
76120;DHT22;64852;48.092;-1.640;2022-12-07T03:28:52;5.60;99.90
76120;DHT22;64852;48.092;-1.640;2022-12-07T03:31:36;5.40;99.90
76120;DHT22;64852;48.092;-1.640;2022-12-07T03:34:31;5.50;99.90
76120;DHT22;64852;48.092;-1.640;2022-12-07T03:37:12;5.50;99.90
76120;DHT22;64852;48.092;-1.640;2022-12-07T03:40:28;5.50;99.90
76120;DHT22;64852;48.092;-1.640;2022-12-07T03:42:28;5.50;99.90
76120;DHT22;64852;48.092;-1.640;2022-12-07T03:44:55;5.50;99.90
76120;DHT22;64852;48.092;-1.640;2022-12-07T03:47:34;5.50;99.90
76120;DHT22;64852;48.092;-1.640;2022-12-07T03:50:55;5.50;99.90
76120;DHT22;64852;48.092;-1.640;2022-12-07T03:53:20;5.50;99.90
76120;DHT22;64852;48.092;-1.640;2022-12-07T03:55:48;5.40;99.90
76120;DHT22;64852;48.092;-1.640;2022-12-07T03:58:18;5.50;99.90
76120;DHT22;64852;48.092;-1.640;2022-12-07T04:00:44;5.40;99.90
76120;DHT22;64852;48.092;-1.640;2022-12-07T04:03:10;5.40;99.90
76120;DHT22;64852;48.092;-1.640;2022-12-07T04:05:37;5.30;99.90
76120;DHT22;64852;48.092;-1.640;2022-12-07T04:08:03;5.40;99.90
76120;DHT22;64852;48.092;-1.640;2022-12-07T04:10:29;5.40;99.90
76120;DHT22;64852;48.092;-1.640;2022-12-07T04:12:55;5.30;99.90
76120;DHT22;64852;48.092;-1.640;2022-12-07T04:15:20;5.30;99.90
76120;DHT22;64852;48.092;-1.640;2022-12-07T04:17:46;5.40;99.90
76120;DHT22;64852;48.092;-1.640;2022-12-07T04:20:12;5.40;99.90
76120;DHT22;64852;48.092;-1.640;2022-12-07T04:22:38;5.30;99.90
76120;DHT22;64852;48.092;-1.640;2022-12-07T04:25:04;5.30;99.90
76120;DHT22;64852;48.092;-1.640;2022-12-07T04:27:30;5.40;99.90
76120;DHT22;64852;48.092;-1.640;2022-12-07T04:29:55;5.30;99.90
76120;DHT22;64852;48.092;-1.640;2022-12-07T04:32:22;5.30;99.90
76120;DHT22;64852;48.092;-1.640;2022-12-07T04:34:47;5.30;99.90
76120;DHT22;64852;48.092;-1.640;2022-12-07T04:37:13;5.40;99.90
76120;DHT22;64852;48.092;-1.640;2022-12-07T04:39:39;5.30;99.90
76120;DHT22;64852;48.092;-1.640;2022-12-07T04:42:04;5.30;99.90
76120;DHT22;64852;48.092;-1.640;2022-12-07T04:44:30;5.30;99.90
76120;DHT22;64852;48.092;-1.640;2022-12-07T04:46:56;5.30;99.90
76120;DHT22;64852;48.092;-1.640;2022-12-07T04:49:23;5.30;99.90
76120;DHT22;64852;48.092;-1.640;2022-12-07T04:51:49;5.20;99.90
76120;DHT22;64852;48.092;-1.640;2022-12-07T04:54:15;5.20;99.90
76120;DHT22;64852;48.092;-1.640;2022-12-07T04:56:42;5.20;99.90
76120;DHT22;64852;48.092;-1.640;2022-12-07T04:59:08;5.20;99.90
76120;DHT22;64852;48.092;-1.640;2022-12-07T05:01:34;5.20;99.90
76120;DHT22;64852;48.092;-1.640;2022-12-07T05:04:00;5.20;99.90
76120;DHT22;64852;48.092;-1.640;2022-12-07T05:06:26;5.10;99.90
76120;DHT22;64852;48.092;-1.640;2022-12-07T05:08:52;5.10;99.90
76120;DHT22;64852;48.092;-1.640;2022-12-07T05:11:18;5.00;99.90
76120;DHT22;64852;48.092;-1.640;2022-12-07T05:14:03;5.10;99.90
76120;DHT22;64852;48.092;-1.640;2022-12-07T05:16:29;5.10;99.90
76120;DHT22;64852;48.092;-1.640;2022-12-07T05:18:55;5.10;99.90
76120;DHT22;64852;48.092;-1.640;2022-12-07T05:21:21;5.10;99.90
76120;DHT22;64852;48.092;-1.640;2022-12-07T05:23:47;5.10;99.90
76120;DHT22;64852;48.092;-1.640;2022-12-07T05:26:13;5.10;99.90
76120;DHT22;64852;48.092;-1.640;2022-12-07T05:28:39;5.00;99.90
76120;DHT22;64852;48.092;-1.640;2022-12-07T05:31:05;5.00;99.90
76120;DHT22;64852;48.092;-1.640;2022-12-07T05:33:31;5.00;99.90
76120;DHT22;64852;48.092;-1.640;2022-12-07T05:35:56;5.00;99.90
76120;DHT22;64852;48.092;-1.640;2022-12-07T05:38:22;5.70;99.90
76120;DHT22;64852;48.092;-1.640;2022-12-07T05:40:47;5.20;99.90
76120;DHT22;64852;48.092;-1.640;2022-12-07T05:43:13;5.00;99.90
76120;DHT22;64852;48.092;-1.640;2022-12-07T05:45:39;5.00;99.90
76120;DHT22;64852;48.092;-1.640;2022-12-07T05:48:04;5.00;99.90
76120;DHT22;64852;48.092;-1.640;2022-12-07T05:50:30;4.90;99.90
76120;DHT22;64852;48.092;-1.640;2022-12-07T05:52:56;4.80;99.90
76120;DHT22;64852;48.092;-1.640;2022-12-07T05:55:21;4.90;99.90
76120;DHT22;64852;48.092;-1.640;2022-12-07T05:57:47;4.90;99.90
76120;DHT22;64852;48.092;-1.640;2022-12-07T06:00:32;4.90;99.90
76120;DHT22;64852;48.092;-1.640;2022-12-07T06:02:57;4.90;99.90
76120;DHT22;64852;48.092;-1.640;2022-12-07T06:05:23;4.90;99.90
76120;DHT22;64852;48.092;-1.640;2022-12-07T06:07:49;4.80;99.90
76120;DHT22;64852;48.092;-1.640;2022-12-07T06:10:15;4.90;99.90
76120;DHT22;64852;48.092;-1.640;2022-12-07T06:12:40;4.80;99.90
76120;DHT22;64852;48.092;-1.640;2022-12-07T06:15:09;4.80;99.90
76120;DHT22;64852;48.092;-1.640;2022-12-07T06:17:35;4.70;99.90
76120;DHT22;64852;48.092;-1.640;2022-12-07T06:20:01;4.70;99.90
76120;DHT22;64852;48.092;-1.640;2022-12-07T06:22:26;4.90;99.90
76120;DHT22;64852;48.092;-1.640;2022-12-07T06:24:52;4.90;99.90
76120;DHT22;64852;48.092;-1.640;2022-12-07T06:27:18;4.90;99.90
76120;DHT22;64852;48.092;-1.640;2022-12-07T06:29:43;5.00;99.90
76120;DHT22;64852;48.092;-1.640;2022-12-07T06:32:09;5.10;99.90
76120;DHT22;64852;48.092;-1.640;2022-12-07T06:34:35;5.20;99.90
76120;DHT22;64852;48.092;-1.640;2022-12-07T06:37:00;5.20;99.90
76120;DHT22;64852;48.092;-1.640;2022-12-07T06:39:27;5.20;99.90
76120;DHT22;64852;48.092;-1.640;2022-12-07T06:41:53;5.30;99.90
76120;DHT22;64852;48.092;-1.640;2022-12-07T06:44:20;5.20;99.90
76120;DHT22;64852;48.092;-1.640;2022-12-07T06:46:47;3.20;99.90
76120;DHT22;64852;48.092;-1.640;2022-12-07T06:49:13;5.20;99.90
76120;DHT22;64852;48.092;-1.640;2022-12-07T06:51:39;5.30;99.90
76120;DHT22;64852;48.092;-1.640;2022-12-07T06:54:07;5.50;99.90
76120;DHT22;64852;48.092;-1.640;2022-12-07T06:56:33;5.20;99.90
76120;DHT22;64852;48.092;-1.640;2022-12-07T06:58:59;5.20;99.90
76120;DHT22;64852;48.092;-1.640;2022-12-07T07:01:25;5.20;99.90
76120;DHT22;64852;48.092;-1.640;2022-12-07T07:03:50;5.10;99.90
76120;DHT22;64852;48.092;-1.640;2022-12-07T07:06:16;5.10;99.90
76120;DHT22;64852;48.092;-1.640;2022-12-07T07:08:42;5.00;99.90
76120;DHT22;64852;48.092;-1.640;2022-12-07T07:11:08;5.10;99.90
76120;DHT22;64852;48.092;-1.640;2022-12-07T07:13:34;5.10;99.90
76120;DHT22;64852;48.092;-1.640;2022-12-07T07:16:00;5.10;99.90
76120;DHT22;64852;48.092;-1.640;2022-12-07T07:18:26;5.10;99.90
76120;DHT22;64852;48.092;-1.640;2022-12-07T07:20:52;5.10;99.90
76120;DHT22;64852;48.092;-1.640;2022-12-07T07:23:19;5.10;99.90
76120;DHT22;64852;48.092;-1.640;2022-12-07T07:25:45;5.10;99.90
76120;DHT22;64852;48.092;-1.640;2022-12-07T07:28:11;5.10;99.90
76120;DHT22;64852;48.092;-1.640;2022-12-07T07:30:37;5.20;99.90
76120;DHT22;64852;48.092;-1.640;2022-12-07T07:33:03;5.10;99.90
76120;DHT22;64852;48.092;-1.640;2022-12-07T07:35:31;5.10;99.90
76120;DHT22;64852;48.092;-1.640;2022-12-07T07:37:57;5.10;99.90
76120;DHT22;64852;48.092;-1.640;2022-12-07T07:40:23;5.00;99.90
76120;DHT22;64852;48.092;-1.640;2022-12-07T07:42:50;5.10;99.90
76120;DHT22;64852;48.092;-1.640;2022-12-07T07:45:16;5.10;99.90
76120;DHT22;64852;48.092;-1.640;2022-12-07T07:47:42;5.10;99.90
76120;DHT22;64852;48.092;-1.640;2022-12-07T07:50:08;5.20;99.90
76120;DHT22;64852;48.092;-1.640;2022-12-07T07:52:34;5.20;99.90
76120;DHT22;64852;48.092;-1.640;2022-12-07T07:54:59;5.20;99.90
76120;DHT22;64852;48.092;-1.640;2022-12-07T07:57:25;5.20;99.90
76120;DHT22;64852;48.092;-1.640;2022-12-07T07:59:50;5.30;99.90
76120;DHT22;64852;48.092;-1.640;2022-12-07T08:02:18;5.20;99.90
76120;DHT22;64852;48.092;-1.640;2022-12-07T08:04:45;5.30;99.90
76120;DHT22;64852;48.092;-1.640;2022-12-07T08:07:11;5.20;99.90
76120;DHT22;64852;48.092;-1.640;2022-12-07T08:09:37;5.20;99.90
76120;DHT22;64852;48.092;-1.640;2022-12-07T08:12:03;5.20;99.90
76120;DHT22;64852;48.092;-1.640;2022-12-07T08:14:29;5.30;99.90
76120;DHT22;64852;48.092;-1.640;2022-12-07T08:16:55;5.30;99.90
76120;DHT22;64852;48.092;-1.640;2022-12-07T08:19:20;5.30;99.90
76120;DHT22;64852;48.092;-1.640;2022-12-07T08:21:46;5.30;99.90
76120;DHT22;64852;48.092;-1.640;2022-12-07T08:24:12;5.40;99.90
76120;DHT22;64852;48.092;-1.640;2022-12-07T08:26:38;5.40;99.90
76120;DHT22;64852;48.092;-1.640;2022-12-07T08:29:03;5.40;99.90
76120;DHT22;64852;48.092;-1.640;2022-12-07T08:31:29;5.50;99.90
76120;DHT22;64852;48.092;-1.640;2022-12-07T08:33:55;5.50;99.90
76120;DHT22;64852;48.092;-1.640;2022-12-07T08:36:21;5.50;99.90
76120;DHT22;64852;48.092;-1.640;2022-12-07T08:38:49;5.60;99.90
76120;DHT22;64852;48.092;-1.640;2022-12-07T08:41:15;5.70;99.90
76120;DHT22;64852;48.092;-1.640;2022-12-07T08:43:41;5.60;99.90
76120;DHT22;64852;48.092;-1.640;2022-12-07T08:46:36;5.60;99.90
76120;DHT22;64852;48.092;-1.640;2022-12-07T08:49:16;5.60;99.90
76120;DHT22;64852;48.092;-1.640;2022-12-07T08:51:43;5.60;99.90
76120;DHT22;64852;48.092;-1.640;2022-12-07T08:54:12;5.60;99.90
76120;DHT22;64852;48.092;-1.640;2022-12-07T08:56:39;5.70;99.90
76120;DHT22;64852;48.092;-1.640;2022-12-07T08:59:05;5.70;99.90
76120;DHT22;64852;48.092;-1.640;2022-12-07T09:01:32;5.80;99.90
76120;DHT22;64852;48.092;-1.640;2022-12-07T09:03:58;5.70;99.90
76120;DHT22;64852;48.092;-1.640;2022-12-07T09:06:24;5.70;99.90
76120;DHT22;64852;48.092;-1.640;2022-12-07T09:08:52;5.80;99.90
76120;DHT22;64852;48.092;-1.640;2022-12-07T09:11:19;5.80;99.90
76120;DHT22;64852;48.092;-1.640;2022-12-07T09:13:45;5.70;99.90
76120;DHT22;64852;48.092;-1.640;2022-12-07T09:16:10;5.80;99.90
76120;DHT22;64852;48.092;-1.640;2022-12-07T09:18:36;5.70;99.90
76120;DHT22;64852;48.092;-1.640;2022-12-07T09:21:03;5.80;99.90
76120;DHT22;64852;48.092;-1.640;2022-12-07T09:23:29;5.70;99.90
76120;DHT22;64852;48.092;-1.640;2022-12-07T09:25:54;5.80;99.90
76120;DHT22;64852;48.092;-1.640;2022-12-07T09:28:20;5.80;99.90
76120;DHT22;64852;48.092;-1.640;2022-12-07T09:30:48;5.80;99.90
76120;DHT22;64852;48.092;-1.640;2022-12-07T09:33:14;5.80;99.90
76120;DHT22;64852;48.092;-1.640;2022-12-07T09:35:50;5.90;99.90
76120;DHT22;64852;48.092;-1.640;2022-12-07T09:38:17;6.00;99.90
76120;DHT22;64852;48.092;-1.640;2022-12-07T09:40:43;5.90;99.90
76120;DHT22;64852;48.092;-1.640;2022-12-07T09:43:20;5.90;99.90
76120;DHT22;64852;48.092;-1.640;2022-12-07T09:45:49;5.80;99.90
76120;DHT22;64852;48.092;-1.640;2022-12-07T09:48:34;5.90;99.90
76120;DHT22;64852;48.092;-1.640;2022-12-07T09:51:20;5.90;99.90
76120;DHT22;64852;48.092;-1.640;2022-12-07T09:53:47;6.00;99.90
76120;DHT22;64852;48.092;-1.640;2022-12-07T09:56:14;5.90;99.90
76120;DHT22;64852;48.092;-1.640;2022-12-07T09:58:40;6.10;99.90
76120;DHT22;64852;48.092;-1.640;2022-12-07T10:01:14;6.00;99.90
76120;DHT22;64852;48.092;-1.640;2022-12-07T10:03:52;6.00;99.90
76120;DHT22;64852;48.092;-1.640;2022-12-07T10:06:18;6.10;99.90
76120;DHT22;64852;48.092;-1.640;2022-12-07T10:08:44;6.20;99.90
76120;DHT22;64852;48.092;-1.640;2022-12-07T10:11:11;6.40;99.90
76120;DHT22;64852;48.092;-1.640;2022-12-07T10:13:48;6.40;99.90
76120;DHT22;64852;48.092;-1.640;2022-12-07T10:16:39;6.40;99.90
76120;DHT22;64852;48.092;-1.640;2022-12-07T10:19:30;6.60;99.90
76120;DHT22;64852;48.092;-1.640;2022-12-07T10:24:35;6.50;99.90
76120;DHT22;64852;48.092;-1.640;2022-12-07T10:27:02;6.60;99.90
76120;DHT22;64852;48.092;-1.640;2022-12-07T10:29:29;6.70;99.90
76120;DHT22;64852;48.092;-1.640;2022-12-07T10:34:42;6.90;99.90
76120;DHT22;64852;48.092;-1.640;2022-12-07T10:39:56;7.10;99.90
76120;DHT22;64852;48.092;-1.640;2022-12-07T10:42:32;7.00;99.90
76120;DHT22;64852;48.092;-1.640;2022-12-07T10:45:13;7.10;99.90
76120;DHT22;64852;48.092;-1.640;2022-12-07T10:53:14;7.20;99.90
76120;DHT22;64852;48.092;-1.640;2022-12-07T11:04:50;7.20;99.90
76120;DHT22;64852;48.092;-1.640;2022-12-07T11:07:41;7.30;99.90
76120;DHT22;64852;48.092;-1.640;2022-12-07T11:13:08;7.50;99.90
76120;DHT22;64852;48.092;-1.640;2022-12-07T11:34:28;7.60;99.90
76120;DHT22;64852;48.092;-1.640;2022-12-07T11:37:02;7.70;99.90
76120;DHT22;64852;48.092;-1.640;2022-12-07T11:39:36;7.60;99.90
76120;DHT22;64852;48.092;-1.640;2022-12-07T11:42:09;7.70;99.90
76120;DHT22;64852;48.092;-1.640;2022-12-07T11:45:10;7.60;99.90
76120;DHT22;64852;48.092;-1.640;2022-12-07T11:47:47;7.50;99.90
76120;DHT22;64852;48.092;-1.640;2022-12-07T11:55:52;8.00;99.90
76120;DHT22;64852;48.092;-1.640;2022-12-07T12:04:01;8.10;99.90
76120;DHT22;64852;48.092;-1.640;2022-12-07T12:06:29;8.30;99.90
76120;DHT22;64852;48.092;-1.640;2022-12-07T12:09:04;8.30;99.90
76120;DHT22;64852;48.092;-1.640;2022-12-07T12:19:36;8.60;99.90
76120;DHT22;64852;48.092;-1.640;2022-12-07T12:24:40;8.70;99.90
76120;DHT22;64852;48.092;-1.640;2022-12-07T12:27:09;8.60;99.90
76120;DHT22;64852;48.092;-1.640;2022-12-07T12:29:41;8.60;99.90
76120;DHT22;64852;48.092;-1.640;2022-12-07T12:32:15;8.60;99.90
76120;DHT22;64852;48.092;-1.640;2022-12-07T12:37:38;8.60;99.90
76120;DHT22;64852;48.092;-1.640;2022-12-07T12:42:52;9.00;99.90
76120;DHT22;64852;48.092;-1.640;2022-12-07T12:45:44;9.30;99.90
76120;DHT22;64852;48.092;-1.640;2022-12-07T12:48:49;9.40;99.90
76120;DHT22;64852;48.092;-1.640;2022-12-07T12:51:35;9.40;99.90
76120;DHT22;64852;48.092;-1.640;2022-12-07T12:54:10;9.40;99.90
76120;DHT22;64852;48.092;-1.640;2022-12-07T12:56:51;9.40;99.90
76120;DHT22;64852;48.092;-1.640;2022-12-07T13:01:54;10.00;99.90
76120;DHT22;64852;48.092;-1.640;2022-12-07T13:04:34;10.30;99.90
76120;DHT22;64852;48.092;-1.640;2022-12-07T13:07:02;10.50;99.90
76120;DHT22;64852;48.092;-1.640;2022-12-07T13:09:30;10.70;99.90
76120;DHT22;64852;48.092;-1.640;2022-12-07T13:12:11;10.70;99.90
76120;DHT22;64852;48.092;-1.640;2022-12-07T13:17:54;10.80;99.90
76120;DHT22;64852;48.092;-1.640;2022-12-07T13:19:59;10.90;99.90
76120;DHT22;64852;48.092;-1.640;2022-12-07T13:28:25;11.20;99.90
76120;DHT22;64852;48.092;-1.640;2022-12-07T13:33:35;11.20;99.90
76120;DHT22;64852;48.092;-1.640;2022-12-07T13:36:01;11.00;99.90
76120;DHT22;64852;48.092;-1.640;2022-12-07T13:38:30;10.90;99.90
76120;DHT22;64852;48.092;-1.640;2022-12-07T13:41:26;10.80;99.90
76120;DHT22;64852;48.092;-1.640;2022-12-07T13:44:11;10.90;99.90
76120;DHT22;64852;48.092;-1.640;2022-12-07T13:49:24;11.00;99.90
76120;DHT22;64852;48.092;-1.640;2022-12-07T13:51:51;11.10;99.90
76120;DHT22;64852;48.092;-1.640;2022-12-07T13:54:17;11.00;99.90
76120;DHT22;64852;48.092;-1.640;2022-12-07T13:56:44;11.00;99.90
76120;DHT22;64852;48.092;-1.640;2022-12-07T13:59:21;11.10;99.90
76120;DHT22;64852;48.092;-1.640;2022-12-07T14:01:48;11.20;99.90
76120;DHT22;64852;48.092;-1.640;2022-12-07T14:04:34;11.20;99.90
76120;DHT22;64852;48.092;-1.640;2022-12-07T14:07:01;11.30;99.90
76120;DHT22;64852;48.092;-1.640;2022-12-07T14:09:41;11.40;99.90
76120;DHT22;64852;48.092;-1.640;2022-12-07T14:12:07;11.40;99.90
76120;DHT22;64852;48.092;-1.640;2022-12-07T14:14:32;11.30;99.90
76120;DHT22;64852;48.092;-1.640;2022-12-07T14:19:47;11.30;99.90
76120;DHT22;64852;48.092;-1.640;2022-12-07T14:22:25;11.40;99.90
76120;DHT22;64852;48.092;-1.640;2022-12-07T14:24:58;11.30;99.90
76120;DHT22;64852;48.092;-1.640;2022-12-07T14:27:24;11.10;99.90
76120;DHT22;64852;48.092;-1.640;2022-12-07T14:29:56;10.90;99.90
76120;DHT22;64852;48.092;-1.640;2022-12-07T14:32:27;10.80;99.90
76120;DHT22;64852;48.092;-1.640;2022-12-07T14:35:09;10.60;99.90
76120;DHT22;64852;48.092;-1.640;2022-12-07T14:37:40;10.40;99.90
76120;DHT22;64852;48.092;-1.640;2022-12-07T14:40:06;10.30;99.90
76120;DHT22;64852;48.092;-1.640;2022-12-07T14:42:33;10.30;99.90
76120;DHT22;64852;48.092;-1.640;2022-12-07T14:45:00;10.20;99.90
76120;DHT22;64852;48.092;-1.640;2022-12-07T14:47:26;10.10;99.90
76120;DHT22;64852;48.092;-1.640;2022-12-07T14:49:52;10.10;99.90
76120;DHT22;64852;48.092;-1.640;2022-12-07T14:52:27;10.00;99.90
76120;DHT22;64852;48.092;-1.640;2022-12-07T14:54:53;10.00;99.90
76120;DHT22;64852;48.092;-1.640;2022-12-07T14:57:19;10.00;99.90
76120;DHT22;64852;48.092;-1.640;2022-12-07T14:59:45;9.90;99.90
76120;DHT22;64852;48.092;-1.640;2022-12-07T15:02:11;9.80;99.90
76120;DHT22;64852;48.092;-1.640;2022-12-07T15:04:37;9.80;99.90
76120;DHT22;64852;48.092;-1.640;2022-12-07T15:07:05;9.80;99.90
76120;DHT22;64852;48.092;-1.640;2022-12-07T15:09:31;9.70;99.90
76120;DHT22;64852;48.092;-1.640;2022-12-07T15:11:56;9.70;99.90
76120;DHT22;64852;48.092;-1.640;2022-12-07T15:14:22;9.70;99.90
76120;DHT22;64852;48.092;-1.640;2022-12-07T15:16:48;9.60;99.90
76120;DHT22;64852;48.092;-1.640;2022-12-07T15:19:19;9.70;99.90
76120;DHT22;64852;48.092;-1.640;2022-12-07T15:21:48;9.60;99.90
76120;DHT22;64852;48.092;-1.640;2022-12-07T15:24:14;9.60;99.90
76120;DHT22;64852;48.092;-1.640;2022-12-07T15:26:40;9.50;99.90
76120;DHT22;64852;48.092;-1.640;2022-12-07T15:29:06;9.50;99.90
76120;DHT22;64852;48.092;-1.640;2022-12-07T15:31:32;9.60;99.90
76120;DHT22;64852;48.092;-1.640;2022-12-07T15:33:58;9.50;99.90
76120;DHT22;64852;48.092;-1.640;2022-12-07T15:36:26;9.50;99.90
76120;DHT22;64852;48.092;-1.640;2022-12-07T15:38:53;9.50;99.90
76120;DHT22;64852;48.092;-1.640;2022-12-07T15:41:19;9.50;99.90
76120;DHT22;64852;48.092;-1.640;2022-12-07T15:43:45;9.50;99.90
76120;DHT22;64852;48.092;-1.640;2022-12-07T15:46:34;9.40;99.90
76120;DHT22;64852;48.092;-1.640;2022-12-07T15:49:00;9.50;99.90
76120;DHT22;64852;48.092;-1.640;2022-12-07T15:51:26;9.40;99.90
76120;DHT22;64852;48.092;-1.640;2022-12-07T15:53:52;9.30;99.90
76120;DHT22;64852;48.092;-1.640;2022-12-07T15:56:19;9.30;99.90
76120;DHT22;64852;48.092;-1.640;2022-12-07T15:58:44;9.30;99.90
76120;DHT22;64852;48.092;-1.640;2022-12-07T16:01:18;9.20;99.90
76120;DHT22;64852;48.092;-1.640;2022-12-07T16:03:45;9.20;99.90
76120;DHT22;64852;48.092;-1.640;2022-12-07T16:06:11;9.10;99.90
76120;DHT22;64852;48.092;-1.640;2022-12-07T16:08:37;9.00;99.90
76120;DHT22;64852;48.092;-1.640;2022-12-07T16:11:07;9.00;99.90
76120;DHT22;64852;48.092;-1.640;2022-12-07T16:13:33;8.90;99.90
76120;DHT22;64852;48.092;-1.640;2022-12-07T16:16:05;8.90;99.90
76120;DHT22;64852;48.092;-1.640;2022-12-07T16:18:31;8.90;99.90
76120;DHT22;64852;48.092;-1.640;2022-12-07T16:20:57;8.80;99.90
76120;DHT22;64852;48.092;-1.640;2022-12-07T16:23:23;8.70;99.90
76120;DHT22;64852;48.092;-1.640;2022-12-07T16:25:48;8.70;99.90
76120;DHT22;64852;48.092;-1.640;2022-12-07T16:28:14;8.60;99.90
76120;DHT22;64852;48.092;-1.640;2022-12-07T16:30:39;8.60;99.90
76120;DHT22;64852;48.092;-1.640;2022-12-07T16:33:05;8.50;99.90
76120;DHT22;64852;48.092;-1.640;2022-12-07T16:35:31;8.40;99.90
76120;DHT22;64852;48.092;-1.640;2022-12-07T16:37:56;8.50;99.90
76120;DHT22;64852;48.092;-1.640;2022-12-07T16:40:22;8.30;99.90
76120;DHT22;64852;48.092;-1.640;2022-12-07T16:42:48;8.40;99.90
76120;DHT22;64852;48.092;-1.640;2022-12-07T16:45:13;8.10;99.90
76120;DHT22;64852;48.092;-1.640;2022-12-07T16:47:39;8.30;99.90
76120;DHT22;64852;48.092;-1.640;2022-12-07T16:50:06;8.20;99.90
76120;DHT22;64852;48.092;-1.640;2022-12-07T16:52:33;8.10;99.90
76120;DHT22;64852;48.092;-1.640;2022-12-07T16:54:59;8.10;99.90
76120;DHT22;64852;48.092;-1.640;2022-12-07T16:57:24;8.10;99.90
76120;DHT22;64852;48.092;-1.640;2022-12-07T16:59:51;8.00;99.90
76120;DHT22;64852;48.092;-1.640;2022-12-07T17:02:18;7.90;99.90
76120;DHT22;64852;48.092;-1.640;2022-12-07T17:04:44;7.90;99.90
76120;DHT22;64852;48.092;-1.640;2022-12-07T17:07:10;7.80;99.90
76120;DHT22;64852;48.092;-1.640;2022-12-07T17:09:36;7.80;99.90
76120;DHT22;64852;48.092;-1.640;2022-12-07T17:12:02;7.80;99.90
76120;DHT22;64852;48.092;-1.640;2022-12-07T17:14:28;7.80;99.90
76120;DHT22;64852;48.092;-1.640;2022-12-07T17:17:12;7.80;99.90
76120;DHT22;64852;48.092;-1.640;2022-12-07T17:19:38;7.80;99.90
76120;DHT22;64852;48.092;-1.640;2022-12-07T17:22:03;7.80;99.90
76120;DHT22;64852;48.092;-1.640;2022-12-07T17:24:29;7.90;99.90
76120;DHT22;64852;48.092;-1.640;2022-12-07T17:26:55;7.70;99.90
76120;DHT22;64852;48.092;-1.640;2022-12-07T17:29:21;7.70;99.90
76120;DHT22;64852;48.092;-1.640;2022-12-07T17:31:48;7.60;99.90
76120;DHT22;64852;48.092;-1.640;2022-12-07T17:34:15;7.60;99.90
76120;DHT22;64852;48.092;-1.640;2022-12-07T17:36:41;7.60;99.90